sensor_id;sensor_type;location;lat;lon;timestamp;P1;durP1;ratioP1;P2;durP2;ratioP2
45962;SDS011;31669;49.892;20.818;2022-07-22T00:03:51;6.90;;;2.20;;
45962;SDS011;31669;49.892;20.818;2022-07-22T00:08:52;2.40;;;1.70;;
45962;SDS011;31669;49.892;20.818;2022-07-22T00:13:52;6.82;;;2.08;;
45962;SDS011;31669;49.892;20.818;2022-07-22T00:18:53;1.97;;;1.80;;
45962;SDS011;31669;49.892;20.818;2022-07-22T00:23:53;4.18;;;2.03;;
45962;SDS011;31669;49.892;20.818;2022-07-22T00:28:54;3.72;;;2.22;;
45962;SDS011;31669;49.892;20.818;2022-07-22T00:33:54;2.87;;;2.07;;
45962;SDS011;31669;49.892;20.818;2022-07-22T00:38:55;4.00;;;2.00;;
45962;SDS011;31669;49.892;20.818;2022-07-22T00:48:57;4.83;;;2.53;;
45962;SDS011;31669;49.892;20.818;2022-07-22T00:53:58;4.22;;;1.45;;
45962;SDS011;31669;49.892;20.818;2022-07-22T00:59:00;3.97;;;2.00;;
45962;SDS011;31669;49.892;20.818;2022-07-22T01:04:01;4.22;;;2.33;;
45962;SDS011;31669;49.892;20.818;2022-07-22T01:09:02;1.63;;;1.35;;
45962;SDS011;31669;49.892;20.818;2022-07-22T01:14:03;3.95;;;2.40;;
45962;SDS011;31669;49.892;20.818;2022-07-22T01:19:04;2.60;;;1.37;;
45962;SDS011;31669;49.892;20.818;2022-07-22T01:29:06;2.25;;;1.58;;
45962;SDS011;31669;49.892;20.818;2022-07-22T01:34:07;2.47;;;1.73;;
45962;SDS011;31669;49.892;20.818;2022-07-22T01:39:08;2.20;;;1.37;;
45962;SDS011;31669;49.892;20.818;2022-07-22T01:44:08;3.05;;;2.00;;
45962;SDS011;31669;49.892;20.818;2022-07-22T01:49:09;2.15;;;1.48;;
45962;SDS011;31669;49.892;20.818;2022-07-22T01:54:10;4.13;;;1.40;;
45962;SDS011;31669;49.892;20.818;2022-07-22T01:59:10;2.40;;;1.47;;
45962;SDS011;31669;49.892;20.818;2022-07-22T02:04:11;2.37;;;1.70;;
45962;SDS011;31669;49.892;20.818;2022-07-22T02:09:11;3.00;;;1.88;;
45962;SDS011;31669;49.892;20.818;2022-07-22T02:14:12;5.63;;;2.30;;
45962;SDS011;31669;49.892;20.818;2022-07-22T02:19:12;2.15;;;1.63;;
45962;SDS011;31669;49.892;20.818;2022-07-22T02:24:13;3.13;;;1.73;;
45962;SDS011;31669;49.892;20.818;2022-07-22T02:29:13;2.00;;;1.30;;
45962;SDS011;31669;49.892;20.818;2022-07-22T02:34:14;2.92;;;1.17;;
45962;SDS011;31669;49.892;20.818;2022-07-22T02:39:15;2.13;;;1.40;;
45962;SDS011;31669;49.892;20.818;2022-07-22T02:44:15;2.53;;;1.30;;
45962;SDS011;31669;49.892;20.818;2022-07-22T02:49:16;2.17;;;1.27;;
45962;SDS011;31669;49.892;20.818;2022-07-22T02:54:16;2.13;;;1.23;;
45962;SDS011;31669;49.892;20.818;2022-07-22T02:59:17;1.40;;;0.97;;
45962;SDS011;31669;49.892;20.818;2022-07-22T03:04:17;3.00;;;1.63;;
45962;SDS011;31669;49.892;20.818;2022-07-22T03:09:18;3.10;;;1.92;;
45962;SDS011;31669;49.892;20.818;2022-07-22T03:14:19;1.10;;;1.00;;
45962;SDS011;31669;49.892;20.818;2022-07-22T03:19:20;2.63;;;1.30;;
45962;SDS011;31669;49.892;20.818;2022-07-22T03:24:20;2.30;;;1.77;;
45962;SDS011;31669;49.892;20.818;2022-07-22T03:29:21;2.37;;;1.33;;
45962;SDS011;31669;49.892;20.818;2022-07-22T03:34:21;3.70;;;1.42;;
45962;SDS011;31669;49.892;20.818;2022-07-22T03:39:22;1.20;;;1.10;;
45962;SDS011;31669;49.892;20.818;2022-07-22T03:44:22;1.85;;;1.38;;
45962;SDS011;31669;49.892;20.818;2022-07-22T03:49:22;1.93;;;1.50;;
45962;SDS011;31669;49.892;20.818;2022-07-22T03:54:23;1.52;;;1.05;;
45962;SDS011;31669;49.892;20.818;2022-07-22T03:59:24;2.25;;;1.13;;
45962;SDS011;31669;49.892;20.818;2022-07-22T04:04:24;1.60;;;1.03;;
45962;SDS011;31669;49.892;20.818;2022-07-22T04:09:25;1.63;;;0.93;;
45962;SDS011;31669;49.892;20.818;2022-07-22T04:14:25;0.80;;;0.70;;
45962;SDS011;31669;49.892;20.818;2022-07-22T04:19:26;2.20;;;1.27;;
45962;SDS011;31669;49.892;20.818;2022-07-22T04:24:27;2.40;;;1.40;;
45962;SDS011;31669;49.892;20.818;2022-07-22T04:29:27;5.32;;;1.65;;
45962;SDS011;31669;49.892;20.818;2022-07-22T04:34:27;1.23;;;1.10;;
45962;SDS011;31669;49.892;20.818;2022-07-22T04:39:28;2.58;;;1.20;;
45962;SDS011;31669;49.892;20.818;2022-07-22T04:44:29;1.40;;;0.93;;
45962;SDS011;31669;49.892;20.818;2022-07-22T04:49:29;1.58;;;1.13;;
45962;SDS011;31669;49.892;20.818;2022-07-22T04:54:30;1.83;;;1.03;;
45962;SDS011;31669;49.892;20.818;2022-07-22T04:59:30;1.25;;;1.02;;
45962;SDS011;31669;49.892;20.818;2022-07-22T05:04:31;3.57;;;1.23;;
45962;SDS011;31669;49.892;20.818;2022-07-22T05:09:31;1.67;;;1.30;;
45962;SDS011;31669;49.892;20.818;2022-07-22T05:14:32;1.63;;;1.53;;
45962;SDS011;31669;49.892;20.818;2022-07-22T05:19:32;1.33;;;1.20;;
45962;SDS011;31669;49.892;20.818;2022-07-22T05:24:33;3.93;;;1.53;;
45962;SDS011;31669;49.892;20.818;2022-07-22T05:29:33;2.17;;;1.33;;
45962;SDS011;31669;49.892;20.818;2022-07-22T05:34:34;2.08;;;1.90;;
45962;SDS011;31669;49.892;20.818;2022-07-22T05:39:34;4.33;;;1.77;;
45962;SDS011;31669;49.892;20.818;2022-07-22T05:44:35;2.93;;;1.93;;
45962;SDS011;31669;49.892;20.818;2022-07-22T05:49:36;5.43;;;2.30;;
45962;SDS011;31669;49.892;20.818;2022-07-22T05:54:37;4.25;;;2.08;;
45962;SDS011;31669;49.892;20.818;2022-07-22T05:59:40;4.45;;;2.72;;
45962;SDS011;31669;49.892;20.818;2022-07-22T06:04:41;2.10;;;1.27;;
45962;SDS011;31669;49.892;20.818;2022-07-22T06:09:42;3.47;;;1.40;;
45962;SDS011;31669;49.892;20.818;2022-07-22T06:14:42;3.53;;;1.70;;
45962;SDS011;31669;49.892;20.818;2022-07-22T06:19:43;3.53;;;2.05;;
45962;SDS011;31669;49.892;20.818;2022-07-22T06:24:44;5.07;;;1.27;;
45962;SDS011;31669;49.892;20.818;2022-07-22T06:29:44;2.70;;;1.85;;
45962;SDS011;31669;49.892;20.818;2022-07-22T06:34:45;4.40;;;2.10;;
45962;SDS011;31669;49.892;20.818;2022-07-22T06:39:46;3.27;;;2.30;;
45962;SDS011;31669;49.892;20.818;2022-07-22T06:44:51;1.83;;;1.50;;
45962;SDS011;31669;49.892;20.818;2022-07-22T06:49:52;3.30;;;2.25;;
45962;SDS011;31669;49.892;20.818;2022-07-22T06:54:52;8.30;;;3.60;;
45962;SDS011;31669;49.892;20.818;2022-07-22T06:59:53;3.70;;;2.43;;
45962;SDS011;31669;49.892;20.818;2022-07-22T07:04:53;5.37;;;2.67;;
45962;SDS011;31669;49.892;20.818;2022-07-22T07:09:54;4.60;;;3.30;;
45962;SDS011;31669;49.892;20.818;2022-07-22T07:14:54;5.93;;;3.93;;
45962;SDS011;31669;49.892;20.818;2022-07-22T07:19:55;7.65;;;3.38;;
45962;SDS011;31669;49.892;20.818;2022-07-22T07:24:55;2.83;;;2.07;;
45962;SDS011;31669;49.892;20.818;2022-07-22T07:29:56;3.08;;;2.20;;
45962;SDS011;31669;49.892;20.818;2022-07-22T07:34:57;9.33;;;2.63;;
45962;SDS011;31669;49.892;20.818;2022-07-22T07:39:57;3.35;;;2.28;;
45962;SDS011;31669;49.892;20.818;2022-07-22T07:44:58;6.20;;;4.43;;
45962;SDS011;31669;49.892;20.818;2022-07-22T07:49:59;3.17;;;2.23;;
45962;SDS011;31669;49.892;20.818;2022-07-22T07:55:02;5.93;;;3.10;;
45962;SDS011;31669;49.892;20.818;2022-07-22T08:00:04;5.40;;;3.50;;
45962;SDS011;31669;49.892;20.818;2022-07-22T08:05:05;9.02;;;4.55;;
45962;SDS011;31669;49.892;20.818;2022-07-22T08:15:07;4.60;;;2.57;;
45962;SDS011;31669;49.892;20.818;2022-07-22T08:20:07;7.20;;;3.75;;
45962;SDS011;31669;49.892;20.818;2022-07-22T08:25:09;21.55;;;5.18;;
45962;SDS011;31669;49.892;20.818;2022-07-22T08:30:10;8.85;;;4.57;;
45962;SDS011;31669;49.892;20.818;2022-07-22T08:35:11;7.05;;;4.00;;
45962;SDS011;31669;49.892;20.818;2022-07-22T08:40:13;5.47;;;3.55;;
45962;SDS011;31669;49.892;20.818;2022-07-22T08:45:15;5.15;;;3.70;;
45962;SDS011;31669;49.892;20.818;2022-07-22T08:55:16;7.60;;;3.33;;
45962;SDS011;31669;49.892;20.818;2022-07-22T09:00:18;9.35;;;4.07;;
45962;SDS011;31669;49.892;20.818;2022-07-22T09:05:19;8.43;;;3.92;;
45962;SDS011;31669;49.892;20.818;2022-07-22T09:10:20;9.13;;;5.27;;
45962;SDS011;31669;49.892;20.818;2022-07-22T09:15:31;5.18;;;2.60;;
45962;SDS011;31669;49.892;20.818;2022-07-22T09:20:33;9.13;;;3.60;;
45962;SDS011;31669;49.892;20.818;2022-07-22T09:25:34;8.05;;;4.13;;
45962;SDS011;31669;49.892;20.818;2022-07-22T09:30:42;5.72;;;3.22;;
45962;SDS011;31669;49.892;20.818;2022-07-22T09:35:46;7.70;;;3.63;;
45962;SDS011;31669;49.892;20.818;2022-07-22T09:40:48;5.88;;;3.25;;
45962;SDS011;31669;49.892;20.818;2022-07-22T09:50:50;8.85;;;5.25;;
45962;SDS011;31669;49.892;20.818;2022-07-22T09:55:51;6.35;;;3.75;;
45962;SDS011;31669;49.892;20.818;2022-07-22T10:00:52;5.57;;;2.85;;
45962;SDS011;31669;49.892;20.818;2022-07-22T10:05:53;9.00;;;5.32;;
45962;SDS011;31669;49.892;20.818;2022-07-22T10:10:54;10.65;;;4.93;;
45962;SDS011;31669;49.892;20.818;2022-07-22T10:15:58;6.85;;;2.72;;
45962;SDS011;31669;49.892;20.818;2022-07-22T10:21:03;17.88;;;6.90;;
45962;SDS011;31669;49.892;20.818;2022-07-22T10:26:04;11.13;;;4.45;;
45962;SDS011;31669;49.892;20.818;2022-07-22T10:36:31;14.82;;;5.93;;
45962;SDS011;31669;49.892;20.818;2022-07-22T10:41:36;12.15;;;6.13;;
45962;SDS011;31669;49.892;20.818;2022-07-22T10:46:53;8.80;;;4.68;;
45962;SDS011;31669;49.892;20.818;2022-07-22T10:57:28;6.03;;;4.38;;
45962;SDS011;31669;49.892;20.818;2022-07-22T11:02:29;8.68;;;4.50;;
45962;SDS011;31669;49.892;20.818;2022-07-22T11:07:29;13.97;;;5.77;;
45962;SDS011;31669;49.892;20.818;2022-07-22T11:12:31;8.85;;;5.25;;
45962;SDS011;31669;49.892;20.818;2022-07-22T11:17:32;11.03;;;5.53;;
45962;SDS011;31669;49.892;20.818;2022-07-22T11:22:35;10.48;;;5.65;;
45962;SDS011;31669;49.892;20.818;2022-07-22T11:27:36;10.00;;;5.97;;
45962;SDS011;31669;49.892;20.818;2022-07-22T11:32:41;9.77;;;5.07;;
45962;SDS011;31669;49.892;20.818;2022-07-22T11:37:41;11.48;;;5.55;;
45962;SDS011;31669;49.892;20.818;2022-07-22T11:42:42;12.27;;;5.20;;
45962;SDS011;31669;49.892;20.818;2022-07-22T11:47:52;9.73;;;6.20;;
45962;SDS011;31669;49.892;20.818;2022-07-22T11:52:52;10.07;;;5.80;;
45962;SDS011;31669;49.892;20.818;2022-07-22T11:57:53;9.43;;;6.47;;
45962;SDS011;31669;49.892;20.818;2022-07-22T12:02:53;7.57;;;3.90;;
45962;SDS011;31669;49.892;20.818;2022-07-22T12:07:54;8.02;;;4.65;;
45962;SDS011;31669;49.892;20.818;2022-07-22T12:12:54;8.57;;;4.83;;
45962;SDS011;31669;49.892;20.818;2022-07-22T12:18:13;6.05;;;3.65;;
45962;SDS011;31669;49.892;20.818;2022-07-22T12:23:14;16.00;;;5.85;;
45962;SDS011;31669;49.892;20.818;2022-07-22T12:28:14;11.10;;;6.38;;
45962;SDS011;31669;49.892;20.818;2022-07-22T12:33:15;13.30;;;6.30;;
45962;SDS011;31669;49.892;20.818;2022-07-22T12:38:16;8.07;;;4.18;;
45962;SDS011;31669;49.892;20.818;2022-07-22T12:48:17;10.10;;;5.73;;
45962;SDS011;31669;49.892;20.818;2022-07-22T12:53:18;11.75;;;5.20;;
45962;SDS011;31669;49.892;20.818;2022-07-22T13:03:19;10.43;;;5.93;;
45962;SDS011;31669;49.892;20.818;2022-07-22T13:08:20;16.20;;;6.50;;
45962;SDS011;31669;49.892;20.818;2022-07-22T13:18:22;15.53;;;9.17;;
45962;SDS011;31669;49.892;20.818;2022-07-22T13:23:22;13.13;;;6.30;;
45962;SDS011;31669;49.892;20.818;2022-07-22T13:28:25;15.27;;;8.82;;
45962;SDS011;31669;49.892;20.818;2022-07-22T13:33:25;16.90;;;7.47;;
45962;SDS011;31669;49.892;20.818;2022-07-22T13:38:26;15.75;;;8.10;;
45962;SDS011;31669;49.892;20.818;2022-07-22T13:43:27;12.93;;;6.03;;
45962;SDS011;31669;49.892;20.818;2022-07-22T13:48:27;20.35;;;6.88;;
45962;SDS011;31669;49.892;20.818;2022-07-22T13:53:28;17.93;;;7.00;;
45962;SDS011;31669;49.892;20.818;2022-07-22T13:58:28;13.23;;;8.30;;
45962;SDS011;31669;49.892;20.818;2022-07-22T14:03:29;22.00;;;8.68;;
45962;SDS011;31669;49.892;20.818;2022-07-22T14:13:30;12.82;;;7.15;;
45962;SDS011;31669;49.892;20.818;2022-07-22T14:23:31;8.68;;;5.50;;
45962;SDS011;31669;49.892;20.818;2022-07-22T14:28:32;11.33;;;5.37;;
45962;SDS011;31669;49.892;20.818;2022-07-22T14:33:32;6.13;;;4.43;;
45962;SDS011;31669;49.892;20.818;2022-07-22T14:43:34;13.65;;;5.25;;
45962;SDS011;31669;49.892;20.818;2022-07-22T14:48:35;8.13;;;5.00;;
45962;SDS011;31669;49.892;20.818;2022-07-22T14:58:36;6.07;;;3.85;;
45962;SDS011;31669;49.892;20.818;2022-07-22T15:03:37;8.60;;;5.37;;
45962;SDS011;31669;49.892;20.818;2022-07-22T15:08:37;8.35;;;5.00;;
45962;SDS011;31669;49.892;20.818;2022-07-22T15:13:38;6.57;;;4.93;;
45962;SDS011;31669;49.892;20.818;2022-07-22T15:18:39;9.07;;;4.90;;
45962;SDS011;31669;49.892;20.818;2022-07-22T15:23:39;6.95;;;4.28;;
45962;SDS011;31669;49.892;20.818;2022-07-22T15:28:40;6.80;;;5.00;;
45962;SDS011;31669;49.892;20.818;2022-07-22T15:38:41;13.40;;;4.83;;
45962;SDS011;31669;49.892;20.818;2022-07-22T15:43:41;4.68;;;3.70;;
45962;SDS011;31669;49.892;20.818;2022-07-22T15:48:42;8.63;;;3.90;;
45962;SDS011;31669;49.892;20.818;2022-07-22T15:53:44;4.78;;;4.13;;
45962;SDS011;31669;49.892;20.818;2022-07-22T15:58:45;9.13;;;3.93;;
45962;SDS011;31669;49.892;20.818;2022-07-22T16:04:05;8.82;;;4.40;;
45962;SDS011;31669;49.892;20.818;2022-07-22T16:09:05;5.55;;;4.20;;
45962;SDS011;31669;49.892;20.818;2022-07-22T16:19:07;7.07;;;3.17;;
45962;SDS011;31669;49.892;20.818;2022-07-22T16:29:08;7.30;;;3.78;;
45962;SDS011;31669;49.892;20.818;2022-07-22T16:34:09;7.38;;;4.55;;
45962;SDS011;31669;49.892;20.818;2022-07-22T16:44:10;7.25;;;4.32;;
45962;SDS011;31669;49.892;20.818;2022-07-22T16:49:11;8.32;;;5.03;;
45962;SDS011;31669;49.892;20.818;2022-07-22T16:54:12;8.37;;;5.13;;
45962;SDS011;31669;49.892;20.818;2022-07-22T16:59:12;5.88;;;3.60;;
45962;SDS011;31669;49.892;20.818;2022-07-22T17:04:13;10.33;;;4.03;;
45962;SDS011;31669;49.892;20.818;2022-07-22T17:09:13;7.38;;;4.93;;
45962;SDS011;31669;49.892;20.818;2022-07-22T17:14:14;7.67;;;4.13;;
45962;SDS011;31669;49.892;20.818;2022-07-22T17:19:14;8.38;;;4.15;;
45962;SDS011;31669;49.892;20.818;2022-07-22T17:24:15;5.27;;;3.07;;
45962;SDS011;31669;49.892;20.818;2022-07-22T17:34:16;5.83;;;2.73;;
45962;SDS011;31669;49.892;20.818;2022-07-22T17:44:17;4.05;;;2.45;;
45962;SDS011;31669;49.892;20.818;2022-07-22T17:49:17;9.73;;;4.18;;
45962;SDS011;31669;49.892;20.818;2022-07-22T17:59:18;5.57;;;3.75;;
45962;SDS011;31669;49.892;20.818;2022-07-22T18:09:19;5.38;;;3.63;;
45962;SDS011;31669;49.892;20.818;2022-07-22T18:14:19;6.67;;;3.20;;
45962;SDS011;31669;49.892;20.818;2022-07-22T18:19:20;4.72;;;2.97;;
45962;SDS011;31669;49.892;20.818;2022-07-22T18:29:21;5.85;;;2.80;;
45962;SDS011;31669;49.892;20.818;2022-07-22T18:34:21;7.20;;;2.83;;
45962;SDS011;31669;49.892;20.818;2022-07-22T18:39:23;10.05;;;3.53;;
45962;SDS011;31669;49.892;20.818;2022-07-22T18:44:24;5.82;;;3.15;;
45962;SDS011;31669;49.892;20.818;2022-07-22T18:49:25;4.25;;;2.58;;
45962;SDS011;31669;49.892;20.818;2022-07-22T18:59:26;4.07;;;3.05;;
45962;SDS011;31669;49.892;20.818;2022-07-22T19:09:26;3.50;;;2.45;;
45962;SDS011;31669;49.892;20.818;2022-07-22T19:19:27;6.90;;;3.20;;
45962;SDS011;31669;49.892;20.818;2022-07-22T19:24:28;3.47;;;2.53;;
45962;SDS011;31669;49.892;20.818;2022-07-22T19:29:29;5.37;;;3.27;;
45962;SDS011;31669;49.892;20.818;2022-07-22T19:34:29;8.93;;;4.65;;
45962;SDS011;31669;49.892;20.818;2022-07-22T19:39:29;3.80;;;2.97;;
45962;SDS011;31669;49.892;20.818;2022-07-22T19:49:31;10.38;;;4.38;;
45962;SDS011;31669;49.892;20.818;2022-07-22T19:54:33;4.50;;;3.35;;
45962;SDS011;31669;49.892;20.818;2022-07-22T19:59:33;9.00;;;4.17;;
45962;SDS011;31669;49.892;20.818;2022-07-22T20:04:34;10.27;;;4.03;;
45962;SDS011;31669;49.892;20.818;2022-07-22T20:09:34;11.03;;;5.00;;
45962;SDS011;31669;49.892;20.818;2022-07-22T20:14:39;9.48;;;4.30;;
45962;SDS011;31669;49.892;20.818;2022-07-22T20:19:40;7.05;;;4.20;;
45962;SDS011;31669;49.892;20.818;2022-07-22T20:24:40;4.72;;;2.70;;
45962;SDS011;31669;49.892;20.818;2022-07-22T20:29:41;4.90;;;2.67;;
45962;SDS011;31669;49.892;20.818;2022-07-22T20:34:41;6.03;;;3.63;;
45962;SDS011;31669;49.892;20.818;2022-07-22T20:39:42;3.60;;;2.63;;
45962;SDS011;31669;49.892;20.818;2022-07-22T20:44:42;5.10;;;3.60;;
45962;SDS011;31669;49.892;20.818;2022-07-22T20:54:43;3.88;;;2.42;;
45962;SDS011;31669;49.892;20.818;2022-07-22T21:04:44;6.20;;;3.35;;
45962;SDS011;31669;49.892;20.818;2022-07-22T21:09:44;6.63;;;4.10;;
45962;SDS011;31669;49.892;20.818;2022-07-22T21:14:45;7.55;;;3.83;;
45962;SDS011;31669;49.892;20.818;2022-07-22T21:19:45;8.73;;;3.73;;
45962;SDS011;31669;49.892;20.818;2022-07-22T21:29:46;6.00;;;3.93;;
45962;SDS011;31669;49.892;20.818;2022-07-22T21:34:47;5.80;;;3.55;;
45962;SDS011;31669;49.892;20.818;2022-07-22T21:39:48;5.40;;;3.63;;
45962;SDS011;31669;49.892;20.818;2022-07-22T21:44:48;7.60;;;4.30;;
45962;SDS011;31669;49.892;20.818;2022-07-22T21:49:49;8.55;;;4.18;;
45962;SDS011;31669;49.892;20.818;2022-07-22T21:54:49;7.20;;;3.97;;
45962;SDS011;31669;49.892;20.818;2022-07-22T21:59:50;7.50;;;5.23;;
45962;SDS011;31669;49.892;20.818;2022-07-22T22:04:50;6.40;;;4.00;;
45962;SDS011;31669;49.892;20.818;2022-07-22T22:09:50;7.33;;;4.40;;
45962;SDS011;31669;49.892;20.818;2022-07-22T22:14:51;5.82;;;4.20;;
45962;SDS011;31669;49.892;20.818;2022-07-22T22:19:54;8.35;;;3.67;;
45962;SDS011;31669;49.892;20.818;2022-07-22T22:24:54;4.75;;;3.63;;
45962;SDS011;31669;49.892;20.818;2022-07-22T22:29:55;7.33;;;4.07;;
45962;SDS011;31669;49.892;20.818;2022-07-22T22:34:55;6.93;;;4.28;;
45962;SDS011;31669;49.892;20.818;2022-07-22T22:39:56;8.80;;;4.63;;
45962;SDS011;31669;49.892;20.818;2022-07-22T22:44:56;6.22;;;4.45;;
45962;SDS011;31669;49.892;20.818;2022-07-22T22:49:56;6.17;;;3.87;;
45962;SDS011;31669;49.892;20.818;2022-07-22T22:54:57;5.88;;;4.38;;
45962;SDS011;31669;49.892;20.818;2022-07-22T22:59:58;5.07;;;3.10;;
45962;SDS011;31669;49.892;20.818;2022-07-22T23:04:58;10.05;;;4.97;;
45962;SDS011;31669;49.892;20.818;2022-07-22T23:09:59;6.80;;;4.47;;
45962;SDS011;31669;49.892;20.818;2022-07-22T23:14:59;6.45;;;4.20;;
45962;SDS011;31669;49.892;20.818;2022-07-22T23:25:00;8.70;;;4.15;;
45962;SDS011;31669;49.892;20.818;2022-07-22T23:30:01;11.63;;;4.88;;
45962;SDS011;31669;49.892;20.818;2022-07-22T23:35:01;7.00;;;4.65;;
45962;SDS011;31669;49.892;20.818;2022-07-22T23:40:02;5.68;;;3.45;;
45962;SDS011;31669;49.892;20.818;2022-07-22T23:50:03;6.07;;;3.97;;
45962;SDS011;31669;49.892;20.818;2022-07-22T23:55:05;8.00;;;3.80;;
